Main page
METAR-TAF:

METAR-TAF

Airports :

Helsinki Airport

Helsinki, Finland

latitude: 60-19N, longitude: 024-58E, elevation: 51 m

Current weather observation

The report was made 39 minutes ago, at 12:50 UTC
Wind 8 kt from the North/Northwest
Temperature 0°C
Humidity 37%
Pressure 999 hPa
Visibility 10 km or more
no clouds below 1500 m and no cumulonimbus

METAR: EFHK 281250Z 33008KT CAVOK M00/M13 Q0999 NOSIG

Time: 15:29 (13:29 UTC)

Forecast

The report was made 2 hours and 3 minutes ago, at 11:26 UTC
Forecast valid from 28 at 12 UTC to 29 at 12 UTC
Wind 7 kt from the North/Northwest
Visibility 10 km or more
no clouds below 1500 m and no cumulonimbus
Temporary
from 29 at 10 UTC to 29 at 12 UTC
Visibility: 7000 m
Broken clouds at a height of 1000 ft
Scattered clouds at a height of 3000 ft, Cumulonimbus.
snow showers

TAF: EFHK 281126Z 2812/2912 33007KT CAVOK TEMPO 2910/2912 7000 SHSN BKN010 SCT030CB

Weather observations and forecasts of more than 4000 airports (METAR and TAF reports).

The available stations are represented by yellow and red dots on the map.

Hover mouse over dot to see the name of the station.

Then click to see weather observations and forecasts.

To change the map : click on the green buttons with a black cross to zoom in, on the green button with a dash to zoom out, or on the green arrows for adjacent maps.


METAR-TAF: